createdAt,value
2023-04-29T00:02:05.200Z,91.50
2023-04-29T00:04:31.837Z,91.50
2023-04-29T00:06:58.363Z,91.50
2023-04-29T00:09:24.813Z,91.50
2023-04-29T00:11:51.213Z,91.50
2023-04-29T00:14:17.666Z,91.50
2023-04-29T00:16:44.138Z,91.50
2023-04-29T00:19:10.604Z,91.50
2023-04-29T00:21:37.045Z,91.50
2023-04-29T00:24:03.498Z,91.50
2023-04-29T00:26:29.893Z,91.50
2023-04-29T00:28:56.296Z,91.40
2023-04-29T00:31:22.731Z,91.40
2023-04-29T00:33:49.179Z,91.50
2023-04-29T00:36:15.570Z,91.50
2023-04-29T00:38:41.927Z,91.50
2023-04-29T00:41:08.302Z,91.50
2023-04-29T00:43:34.941Z,91.50
2023-04-29T00:46:01.322Z,91.40
2023-04-29T00:48:27.774Z,91.40
2023-04-29T00:50:54.213Z,91.40
2023-04-29T00:53:20.620Z,91.40
2023-04-29T00:55:47.002Z,91.40
2023-04-29T00:58:13.445Z,91.40
2023-04-29T01:00:39.887Z,91.40
2023-04-29T01:03:06.422Z,91.40
2023-04-29T01:05:32.906Z,91.30
2023-04-29T01:07:59.363Z,91.30
2023-04-29T01:10:25.820Z,91.30
2023-04-29T01:12:52.270Z,91.20
2023-04-29T01:15:18.668Z,91.20
2023-04-29T01:17:45.161Z,91.20
2023-04-29T01:20:11.613Z,91.10
2023-04-29T01:22:38.025Z,91.10
2023-04-29T01:25:04.702Z,91.10
2023-04-29T01:27:31.131Z,91.10
2023-04-29T01:29:57.550Z,91.10
2023-04-29T01:32:23.974Z,91.00
2023-04-29T01:34:50.359Z,91.00
2023-04-29T01:37:16.745Z,91.00
2023-04-29T01:39:43.156Z,91.00
2023-04-29T01:42:09.613Z,91.00
2023-04-29T01:44:35.999Z,90.90
2023-04-29T01:47:02.431Z,90.90
2023-04-29T01:49:28.841Z,91.00
2023-04-29T01:51:55.530Z,91.00
2023-04-29T01:54:21.937Z,90.90
2023-04-29T01:56:48.298Z,91.00
2023-04-29T01:59:14.725Z,91.00
2023-04-29T02:01:41.134Z,90.90
2023-04-29T02:04:07.590Z,90.90
2023-04-29T02:06:34.159Z,90.90
2023-04-29T02:09:00.612Z,91.00
2023-04-29T02:11:27.080Z,91.00
2023-04-29T02:13:53.518Z,91.00
2023-04-29T02:16:19.902Z,91.00
2023-04-29T02:18:46.299Z,91.00
2023-04-29T02:21:12.707Z,91.00
2023-04-29T02:23:39.144Z,91.00
2023-04-29T02:26:05.659Z,91.00
2023-04-29T02:28:32.035Z,90.90
2023-04-29T02:30:58.423Z,90.90
2023-04-29T02:33:24.806Z,90.90
2023-04-29T02:35:51.235Z,90.80
2023-04-29T02:38:17.698Z,90.80
2023-04-29T02:40:44.123Z,90.80
2023-04-29T02:43:10.554Z,90.80
2023-04-29T02:45:36.969Z,90.80
2023-04-29T02:48:03.391Z,90.80
2023-04-29T02:50:29.825Z,91.00
2023-04-29T02:52:56.276Z,90.70
2023-04-29T02:55:22.670Z,90.70
2023-04-29T02:57:49.052Z,90.60
2023-04-29T03:00:15.428Z,90.60
2023-04-29T03:02:41.892Z,90.50
2023-04-29T03:05:08.395Z,90.50
2023-04-29T03:07:34.924Z,90.40
2023-04-29T03:10:01.317Z,90.40
2023-04-29T03:12:27.770Z,90.40
2023-04-29T03:14:54.189Z,90.40
2023-04-29T03:17:20.613Z,90.40
2023-04-29T03:19:47.014Z,90.30
2023-04-29T03:22:13.426Z,90.30
2023-04-29T03:24:39.892Z,90.30
2023-04-29T03:27:06.350Z,90.30
2023-04-29T03:29:32.795Z,90.30
2023-04-29T03:31:59.204Z,90.30
2023-04-29T03:34:25.619Z,90.30
2023-04-29T03:36:52.098Z,90.30
2023-04-29T03:39:18.587Z,90.30
2023-04-29T03:41:44.993Z,90.30
2023-04-29T03:44:11.423Z,90.30
2023-04-29T03:46:38.002Z,90.20
2023-04-29T03:49:04.708Z,90.10
2023-04-29T03:51:31.188Z,90.20
2023-04-29T03:53:57.575Z,90.10
2023-04-29T03:56:23.967Z,90.10
2023-04-29T03:58:50.355Z,90.00
2023-04-29T04:01:16.780Z,90.00
2023-04-29T04:03:43.483Z,90.00
2023-04-29T04:06:10.077Z,90.10
2023-04-29T04:08:36.528Z,90.10
2023-04-29T04:11:02.968Z,90.10
2023-04-29T04:13:29.409Z,90.20
2023-04-29T04:15:55.863Z,90.10
2023-04-29T04:18:22.360Z,90.10
2023-04-29T04:20:48.741Z,90.10
2023-04-29T04:23:15.199Z,90.10
2023-04-29T04:25:41.606Z,90.10
2023-04-29T04:28:07.985Z,90.10
2023-04-29T04:30:34.366Z,90.00
2023-04-29T04:33:00.817Z,90.00
2023-04-29T04:35:27.283Z,90.00
2023-04-29T04:37:53.656Z,90.00
2023-04-29T04:40:20.083Z,90.00
2023-04-29T04:42:46.513Z,90.00
2023-04-29T04:45:12.986Z,89.90
2023-04-29T04:47:39.384Z,89.90
2023-04-29T04:50:05.877Z,89.90
2023-04-29T04:52:32.315Z,89.90
2023-04-29T04:54:58.788Z,89.90
2023-04-29T04:57:25.184Z,89.90
2023-04-29T04:59:51.770Z,89.90
2023-04-29T05:02:18.398Z,90.00
2023-04-29T05:04:44.870Z,90.00
2023-04-29T05:07:11.298Z,90.00
2023-04-29T05:09:37.763Z,89.90
2023-04-29T05:12:04.235Z,89.80
2023-04-29T05:14:30.680Z,89.80
2023-04-29T05:16:57.170Z,89.70
2023-04-29T05:19:23.681Z,89.70
2023-04-29T05:21:50.127Z,89.70
2023-04-29T05:24:16.541Z,89.70
2023-04-29T05:26:42.976Z,89.60
2023-04-29T05:29:09.371Z,89.60
2023-04-29T05:31:35.818Z,89.40
2023-04-29T05:34:02.241Z,89.90
2023-04-29T05:36:28.655Z,89.20
2023-04-29T05:38:55.038Z,89.30
2023-04-29T05:41:21.478Z,89.20
2023-04-29T05:43:47.913Z,89.20
2023-04-29T05:46:14.424Z,89.00
2023-04-29T05:48:40.912Z,88.80
2023-04-29T05:51:07.311Z,88.90
2023-04-29T05:53:33.672Z,88.80
2023-04-29T05:56:00.127Z,88.90
2023-04-29T05:58:26.558Z,88.90
2023-04-29T06:00:52.964Z,89.00
2023-04-29T06:03:19.419Z,89.10
2023-04-29T06:05:45.997Z,89.10
2023-04-29T06:08:12.749Z,89.00
2023-04-29T06:10:39.143Z,88.70
2023-04-29T06:13:05.528Z,88.70
2023-04-29T06:15:31.945Z,88.70
2023-04-29T06:17:58.456Z,88.70
2023-04-29T06:20:24.945Z,88.70
2023-04-29T06:22:51.371Z,88.60
2023-04-29T06:25:17.822Z,88.40
2023-04-29T06:27:44.285Z,88.30
2023-04-29T06:30:10.720Z,88.30
2023-04-29T06:32:37.227Z,88.30
2023-04-29T06:35:03.690Z,88.20
2023-04-29T06:37:30.101Z,88.20
2023-04-29T06:39:56.497Z,88.00
2023-04-29T06:42:22.940Z,87.90
2023-04-29T06:44:49.384Z,87.70
2023-04-29T06:47:15.804Z,87.60
2023-04-29T06:49:42.195Z,87.60
2023-04-29T06:52:08.560Z,87.60
2023-04-29T06:54:34.986Z,87.40
2023-04-29T06:57:01.432Z,87.20
2023-04-29T06:59:27.858Z,87.10
2023-04-29T07:01:54.405Z,87.00
2023-04-29T07:04:20.934Z,87.00
2023-04-29T07:06:47.468Z,86.90
2023-04-29T07:09:13.886Z,86.70
2023-04-29T07:11:40.285Z,86.60
2023-04-29T07:14:06.714Z,86.50
2023-04-29T07:16:33.157Z,86.30
2023-04-29T07:18:59.621Z,86.10
2023-04-29T07:21:26.079Z,86.10
2023-04-29T07:23:52.529Z,86.00
2023-04-29T07:26:18.917Z,86.00
2023-04-29T07:28:45.286Z,85.80
2023-04-29T07:31:11.689Z,85.70
2023-04-29T07:33:38.092Z,85.50
2023-04-29T07:36:04.538Z,85.40
2023-04-29T07:38:30.936Z,85.10
2023-04-29T07:40:57.519Z,84.80
2023-04-29T07:43:23.963Z,84.80
2023-04-29T07:45:50.424Z,84.60
2023-04-29T07:48:16.926Z,84.50
2023-04-29T07:50:43.330Z,84.40
2023-04-29T07:53:09.725Z,84.10
2023-04-29T07:55:36.279Z,83.80
2023-04-29T07:58:02.691Z,83.40
2023-04-29T08:00:29.101Z,83.40
2023-04-29T08:02:55.627Z,83.20
2023-04-29T08:05:22.456Z,83.00
2023-04-29T08:07:48.984Z,82.70
2023-04-29T08:10:15.424Z,82.60
2023-04-29T08:12:41.820Z,82.00
2023-04-29T08:15:09.751Z,81.40
2023-04-29T08:17:36.563Z,80.80
2023-04-29T08:20:03.002Z,81.20
2023-04-29T08:22:29.402Z,81.20
2023-04-29T08:24:55.796Z,81.20
2023-04-29T08:27:22.265Z,80.90
2023-04-29T08:29:48.681Z,80.20
2023-04-29T08:32:15.127Z,79.60
2023-04-29T08:34:41.594Z,79.60
2023-04-29T08:37:07.989Z,79.80
2023-04-29T08:39:34.412Z,79.50
2023-04-29T08:42:00.814Z,79.20
2023-04-29T08:44:27.241Z,79.00
2023-04-29T08:46:53.710Z,78.80
2023-04-29T08:49:20.203Z,78.00
2023-04-29T08:51:46.634Z,77.00
2023-04-29T08:54:13.109Z,76.40
2023-04-29T08:56:39.553Z,76.40
2023-04-29T08:59:05.982Z,75.10
2023-04-29T09:01:32.493Z,74.20
2023-04-29T09:03:59.180Z,74.40
2023-04-29T09:06:25.646Z,73.80
2023-04-29T09:08:52.068Z,74.00
2023-04-29T09:11:18.518Z,73.80
2023-04-29T09:13:44.977Z,73.20
2023-04-29T09:16:11.483Z,72.10
2023-04-29T09:18:38.022Z,72.00
2023-04-29T09:21:04.421Z,71.80
2023-04-29T09:23:30.799Z,69.80
2023-04-29T09:25:57.169Z,69.90
2023-04-29T09:28:23.604Z,70.50
2023-04-29T09:30:49.994Z,69.90
2023-04-29T09:33:16.370Z,70.00
2023-04-29T09:35:42.757Z,68.60
2023-04-29T09:38:09.143Z,68.70
2023-04-29T09:40:46.521Z,68.60
2023-04-29T09:43:21.943Z,68.20
2023-04-29T09:45:48.344Z,68.30
2023-04-29T09:48:14.785Z,67.80
2023-04-29T09:50:41.233Z,67.10
2023-04-29T09:53:07.685Z,67.00
2023-04-29T09:55:34.119Z,66.70
2023-04-29T09:58:00.582Z,65.90
2023-04-29T10:00:27.044Z,62.70
2023-04-29T10:02:53.591Z,62.70
2023-04-29T10:05:20.000Z,62.50
2023-04-29T10:07:46.380Z,63.00
2023-04-29T10:10:12.771Z,62.80
2023-04-29T10:12:39.240Z,62.90
2023-04-29T10:15:05.863Z,62.80
2023-04-29T10:17:32.237Z,62.60
2023-04-29T10:19:58.634Z,62.80
2023-04-29T10:22:25.078Z,62.90
2023-04-29T10:24:51.643Z,62.00
2023-04-29T10:27:18.123Z,61.30
2023-04-29T10:29:44.529Z,61.30
2023-04-29T10:32:10.958Z,60.20
2023-04-29T10:34:37.339Z,60.10
2023-04-29T10:37:03.752Z,60.00
2023-04-29T10:39:30.168Z,60.00
2023-04-29T10:41:56.609Z,60.40
2023-04-29T10:44:23.045Z,59.50
2023-04-29T10:46:49.472Z,58.20
2023-04-29T10:49:15.894Z,58.40
2023-04-29T10:51:42.314Z,57.60
2023-04-29T10:54:08.749Z,58.70
2023-04-29T10:56:35.276Z,58.80
2023-04-29T10:59:01.742Z,59.40
2023-04-29T11:01:28.260Z,60.50
2023-04-29T11:03:55.332Z,60.40
2023-04-29T11:06:22.173Z,59.40
2023-04-29T11:08:48.578Z,58.40
2023-04-29T11:11:14.994Z,58.40
2023-04-29T11:13:41.373Z,58.60
2023-04-29T11:16:07.821Z,59.20
2023-04-29T11:18:34.450Z,59.60
2023-04-29T11:21:00.903Z,60.10
2023-04-29T11:23:28.465Z,60.30
2023-04-29T11:25:54.987Z,60.30
2023-04-29T11:28:21.403Z,60.20
2023-04-29T11:30:47.850Z,60.00
2023-04-29T11:33:14.405Z,59.20
2023-04-29T11:35:40.834Z,58.70
2023-04-29T11:38:07.214Z,58.00
2023-04-29T11:40:33.628Z,58.00
2023-04-29T11:43:00.054Z,58.10
2023-04-29T11:45:26.458Z,59.10
2023-04-29T11:47:55.434Z,58.60
2023-04-29T11:50:22.364Z,58.90
2023-04-29T11:52:48.815Z,59.10
2023-04-29T11:55:15.251Z,59.80
2023-04-29T11:57:41.674Z,60.20
2023-04-29T12:00:09.176Z,60.10
2023-04-29T12:02:35.831Z,60.40
2023-04-29T12:05:02.776Z,60.80
2023-04-29T12:07:29.569Z,60.80
2023-04-29T12:09:55.961Z,60.70
2023-04-29T12:12:22.343Z,60.40
2023-04-29T12:14:48.734Z,59.30
2023-04-29T12:17:15.151Z,58.10
2023-04-29T12:19:41.554Z,57.70
2023-04-29T12:22:08.418Z,57.00
2023-04-29T12:24:34.994Z,57.30
2023-04-29T12:27:01.418Z,58.00
2023-04-29T12:29:27.861Z,58.40
2023-04-29T12:31:54.374Z,58.70
2023-04-29T12:34:20.816Z,58.00
2023-04-29T12:36:47.260Z,57.00
2023-04-29T12:39:13.724Z,55.50
2023-04-29T12:41:40.168Z,54.50
2023-04-29T12:44:06.555Z,53.20
2023-04-29T12:46:33.139Z,52.10
2023-04-29T12:48:59.617Z,51.90
2023-04-29T12:51:26.014Z,51.40
2023-04-29T12:53:52.397Z,52.40
2023-04-29T12:56:18.776Z,52.50
2023-04-29T12:58:45.152Z,52.70
2023-04-29T13:01:11.811Z,51.80
2023-04-29T13:03:38.598Z,50.70
2023-04-29T13:06:05.234Z,50.00
2023-04-29T13:08:31.780Z,49.30
2023-04-29T13:10:58.253Z,49.20
2023-04-29T13:13:24.978Z,48.80
2023-04-29T13:15:51.572Z,49.00
2023-04-29T13:18:18.201Z,48.80
2023-04-29T13:20:44.637Z,48.70
2023-04-29T13:23:11.056Z,49.30
2023-04-29T13:25:37.516Z,49.90
2023-04-29T13:28:03.905Z,50.00
2023-04-29T13:30:30.386Z,49.90
2023-04-29T13:33:03.119Z,50.40
2023-04-29T13:35:34.183Z,50.60
2023-04-29T13:38:00.567Z,50.40
2023-04-29T13:40:28.238Z,50.70
2023-04-29T13:43:02.640Z,50.30
2023-04-29T13:45:32.671Z,49.30
2023-04-29T13:48:08.446Z,48.60
2023-04-29T13:51:22.588Z,49.50
2023-04-29T13:53:56.830Z,49.50
2023-04-29T13:59:31.588Z,50.40
2023-04-29T14:02:14.638Z,50.70
2023-04-29T14:04:13.401Z,51.30
2023-04-29T14:06:40.009Z,51.70
2023-04-29T14:09:06.448Z,51.90
2023-04-29T14:11:32.859Z,52.30
2023-04-29T14:13:59.288Z,52.50
2023-04-29T14:16:25.756Z,52.70
2023-04-29T14:18:52.264Z,52.70
2023-04-29T14:21:18.677Z,51.70
2023-04-29T14:23:45.092Z,50.50
2023-04-29T14:26:27.157Z,50.10
2023-04-29T14:28:54.524Z,49.60
2023-04-29T14:31:20.918Z,49.80
2023-04-29T14:33:47.395Z,50.40
2023-04-29T14:36:13.856Z,50.40
2023-04-29T14:38:40.266Z,50.80
2023-04-29T14:41:06.641Z,51.60
2023-04-29T14:43:33.119Z,51.90
2023-04-29T14:45:59.560Z,52.00
2023-04-29T14:48:25.982Z,52.30
2023-04-29T14:50:52.353Z,52.30
2023-04-29T14:53:18.786Z,52.20
2023-04-29T14:55:45.247Z,52.30
2023-04-29T14:58:11.686Z,52.60
2023-04-29T15:00:38.101Z,52.80
2023-04-29T15:03:04.522Z,52.90
2023-04-29T15:05:31.017Z,52.70
2023-04-29T15:07:57.452Z,52.90
2023-04-29T15:10:23.858Z,53.00
2023-04-29T15:12:50.296Z,53.00
2023-04-29T15:15:16.724Z,53.00
2023-04-29T15:17:43.171Z,53.10
2023-04-29T15:20:09.666Z,52.50
2023-04-29T15:22:36.174Z,53.00
2023-04-29T15:25:02.623Z,53.40
2023-04-29T15:27:28.998Z,53.70
2023-04-29T15:29:55.574Z,53.70
2023-04-29T15:32:22.176Z,54.00
2023-04-29T15:34:48.637Z,54.50
2023-04-29T15:37:15.075Z,54.70
2023-04-29T15:39:41.526Z,54.80
2023-04-29T15:42:08.024Z,54.80
2023-04-29T15:44:34.685Z,54.70
2023-04-29T15:47:01.152Z,54.20
2023-04-29T15:49:27.578Z,54.00
2023-04-29T15:51:53.960Z,54.20
2023-04-29T15:54:20.400Z,54.50
2023-04-29T15:56:46.781Z,53.60
2023-04-29T15:59:13.227Z,54.00
2023-04-29T16:01:39.728Z,54.20
2023-04-29T16:04:06.442Z,54.10
2023-04-29T16:06:33.095Z,54.00
2023-04-29T16:08:59.600Z,53.40
2023-04-29T16:11:25.986Z,53.30
2023-04-29T16:13:52.405Z,53.50
2023-04-29T16:16:18.925Z,53.10
2023-04-29T16:18:45.566Z,52.60
2023-04-29T16:21:12.080Z,52.20
2023-04-29T16:23:38.483Z,51.80
2023-04-29T16:26:05.000Z,51.20
2023-04-29T16:28:31.472Z,51.20
2023-04-29T16:30:57.918Z,51.10
2023-04-29T16:33:24.404Z,50.70
2023-04-29T16:35:51.118Z,50.20
2023-04-29T16:38:17.544Z,50.00
2023-04-29T16:40:43.950Z,49.80
2023-04-29T16:43:10.308Z,48.80
2023-04-29T16:45:36.702Z,48.80
2023-04-29T16:48:03.171Z,49.10
2023-04-29T16:50:29.721Z,49.10
2023-04-29T16:52:56.145Z,48.60
2023-04-29T16:55:22.534Z,48.80
2023-04-29T16:57:48.937Z,48.70
2023-04-29T17:00:15.389Z,48.80
2023-04-29T17:02:41.836Z,48.90
2023-04-29T17:05:08.231Z,48.70
2023-04-29T17:07:34.639Z,48.70
2023-04-29T17:10:01.042Z,49.10
2023-04-29T17:12:27.643Z,49.20
2023-04-29T17:14:54.055Z,49.90
2023-04-29T17:17:20.476Z,48.90
2023-04-29T17:19:47.006Z,48.90
2023-04-29T17:22:13.445Z,48.70
2023-04-29T17:24:39.921Z,48.90
2023-04-29T17:27:06.395Z,48.90
2023-04-29T17:29:32.782Z,48.90
2023-04-29T17:31:59.263Z,49.40
2023-04-29T17:34:25.784Z,49.90
2023-04-29T17:36:52.253Z,50.40
2023-04-29T17:39:18.704Z,50.40
2023-04-29T17:41:45.221Z,50.20
2023-04-29T17:44:11.710Z,50.40
2023-04-29T17:46:38.112Z,50.40
2023-04-29T17:49:04.562Z,50.40
2023-04-29T17:51:31.017Z,50.20
2023-04-29T17:53:57.687Z,50.20
2023-04-29T17:56:24.199Z,50.50
2023-04-29T17:58:50.651Z,50.60
2023-04-29T18:01:17.105Z,50.70
2023-04-29T18:03:43.756Z,50.90
2023-04-29T18:06:10.322Z,51.10
2023-04-29T18:08:36.786Z,51.50
2023-04-29T18:11:03.192Z,51.60
2023-04-29T18:13:29.612Z,51.80
2023-04-29T18:15:56.026Z,51.80
2023-04-29T18:18:22.487Z,52.10
2023-04-29T18:20:48.877Z,52.20
2023-04-29T18:23:15.327Z,52.50
2023-04-29T18:25:41.743Z,52.80
2023-04-29T18:28:19.408Z,53.00
2023-04-29T18:30:49.849Z,53.30
2023-04-29T18:33:16.263Z,53.80
2023-04-29T18:35:42.817Z,54.10
2023-04-29T18:38:09.201Z,54.50
2023-04-29T18:40:35.588Z,54.90
2023-04-29T18:43:02.054Z,55.20
2023-04-29T18:45:28.513Z,55.60
2023-04-29T18:47:54.943Z,56.00
2023-04-29T18:50:21.395Z,56.30
2023-04-29T18:52:47.818Z,56.50
2023-04-29T18:55:14.280Z,56.70
2023-04-29T18:57:40.758Z,57.10
2023-04-29T19:00:07.172Z,57.40
2023-04-29T19:02:33.578Z,57.60
2023-04-29T19:05:00.060Z,57.70
2023-04-29T19:07:26.725Z,58.00
2023-04-29T19:09:53.321Z,58.20
2023-04-29T19:12:19.932Z,58.60
2023-04-29T19:14:46.401Z,58.90
2023-04-29T19:17:12.833Z,59.20
2023-04-29T19:19:39.258Z,59.40
2023-04-29T19:22:05.661Z,59.70
2023-04-29T19:24:32.114Z,59.90
2023-04-29T19:26:58.571Z,60.00
2023-04-29T19:29:24.963Z,60.40
2023-04-29T19:31:51.444Z,60.60
2023-04-29T19:34:17.921Z,60.80
2023-04-29T19:36:44.375Z,61.00
2023-04-29T19:39:10.865Z,61.10
2023-04-29T19:41:37.473Z,61.20
2023-04-29T19:44:03.917Z,61.40
2023-04-29T19:46:30.416Z,61.60
2023-04-29T19:48:56.881Z,61.80
2023-04-29T19:51:23.491Z,62.20
2023-04-29T19:53:50.920Z,62.30
2023-04-29T19:56:17.369Z,62.60
2023-04-29T19:58:43.822Z,62.70
2023-04-29T20:01:10.213Z,62.90
2023-04-29T20:03:36.721Z,63.20
2023-04-29T20:06:03.190Z,63.50
2023-04-29T20:08:29.662Z,63.80
2023-04-29T20:10:56.101Z,64.00
2023-04-29T20:13:22.537Z,64.30
2023-04-29T20:15:48.935Z,64.40
2023-04-29T20:18:15.326Z,64.30
2023-04-29T20:20:41.787Z,64.30
2023-04-29T20:23:08.238Z,64.50
2023-04-29T20:25:34.699Z,64.70
2023-04-29T20:28:01.084Z,64.90
2023-04-29T20:30:27.679Z,64.90
2023-04-29T20:32:54.144Z,64.90
2023-04-29T20:35:20.593Z,65.00
2023-04-29T20:37:46.984Z,65.10
2023-04-29T20:40:13.546Z,65.20
2023-04-29T20:42:39.989Z,65.30
2023-04-29T20:45:06.444Z,65.50
2023-04-29T20:47:32.843Z,65.70
2023-04-29T20:49:59.277Z,65.70
2023-04-29T20:52:25.680Z,65.80
2023-04-29T20:54:52.061Z,66.10
2023-04-29T20:57:18.511Z,66.50
2023-04-29T20:59:44.983Z,66.90
2023-04-29T21:02:11.415Z,67.10
2023-04-29T21:04:38.040Z,67.10
2023-04-29T21:07:04.682Z,67.10
2023-04-29T21:09:31.105Z,67.20
2023-04-29T21:11:57.781Z,67.20
2023-04-29T21:14:24.410Z,67.20
2023-04-29T21:16:50.809Z,67.20
2023-04-29T21:19:17.168Z,67.40
2023-04-29T21:21:43.589Z,67.50
2023-04-29T21:24:10.075Z,67.80
2023-04-29T21:26:36.510Z,68.00
2023-04-29T21:29:03.036Z,68.10
2023-04-29T21:31:29.567Z,68.10
2023-04-29T21:33:56.067Z,68.10
2023-04-29T21:36:22.450Z,68.10
2023-04-29T21:38:48.837Z,68.20
2023-04-29T21:41:15.261Z,68.30
2023-04-29T21:43:41.714Z,68.20
2023-04-29T21:46:08.234Z,68.40
2023-04-29T21:48:34.823Z,68.50
2023-04-29T21:51:01.260Z,68.50
2023-04-29T21:53:27.657Z,68.40
2023-04-29T21:55:54.117Z,69.10
2023-04-29T21:58:20.513Z,68.50
2023-04-29T22:00:46.974Z,68.80
2023-04-29T22:03:13.445Z,69.00
2023-04-29T22:05:39.878Z,69.80
2023-04-29T22:08:06.264Z,69.20
2023-04-29T22:10:32.664Z,69.20
2023-04-29T22:12:59.067Z,69.30
2023-04-29T22:15:28.709Z,69.30
2023-04-29T22:17:56.074Z,69.40
2023-04-29T22:20:22.576Z,69.30
2023-04-29T22:22:48.975Z,69.40
2023-04-29T22:25:15.377Z,69.40
2023-04-29T22:27:41.768Z,69.50
2023-04-29T22:30:08.154Z,69.70
2023-04-29T22:32:34.814Z,69.70
2023-04-29T22:35:01.220Z,70.00
2023-04-29T22:37:27.617Z,70.30
2023-04-29T22:39:54.215Z,70.60
2023-04-29T22:42:20.810Z,70.70
2023-04-29T22:44:47.188Z,70.80
2023-04-29T22:47:13.641Z,70.70
2023-04-29T22:49:40.112Z,70.70
2023-04-29T22:52:06.573Z,70.60
2023-04-29T22:54:33.025Z,70.80
2023-04-29T22:56:59.442Z,70.80
2023-04-29T22:59:25.880Z,70.90
2023-04-29T23:01:52.443Z,70.90
2023-04-29T23:04:18.968Z,70.90
2023-04-29T23:06:45.494Z,70.90
2023-04-29T23:09:12.045Z,70.70
2023-04-29T23:11:38.496Z,70.60
2023-04-29T23:14:05.007Z,70.90
2023-04-29T23:16:31.467Z,71.20
2023-04-29T23:18:57.892Z,71.40
2023-04-29T23:21:24.334Z,71.40
2023-04-29T23:23:50.745Z,71.50
2023-04-29T23:26:17.203Z,71.70
2023-04-29T23:28:43.592Z,71.60
2023-04-29T23:31:10.051Z,71.60
2023-04-29T23:33:36.522Z,71.60
2023-04-29T23:36:03.035Z,71.60
2023-04-29T23:38:29.435Z,71.50
2023-04-29T23:40:55.834Z,72.00
2023-04-29T23:43:22.214Z,71.50
2023-04-29T23:45:48.681Z,71.50
2023-04-29T23:48:15.074Z,71.60
2023-04-29T23:50:41.496Z,71.80
2023-04-29T23:53:07.862Z,72.00
2023-04-29T23:55:34.299Z,72.10
2023-04-29T23:58:00.740Z,72.30
